Hillsboro Beach, Florida
Current Conditions -  °F | °C
As of 8:53 PM on Wednesday 17 Dec 2014 (Local Time) from KPMP Reporting Station
Clear Clear  
Wind Chill: 67°   Ceiling: Unl
Heat Index: 67°   Visibility: 10mi
Dew Point: 55°   Wind: 0mph
Humidity: 66%   Direction: NA
Pressure: 30.14"   Gusts: NA
Location:  26.2377°N, 80.0981°W
Report Text: KPMP 180153Z 00000KT 10SM CLR 19/13 A3014 RMK AO2 SLP208 T01940128
Loading
Personal Weather Stations






























Interactive Weather Map New forecast layout! Learn more

10-Day Weather Forecast

Advertisements
Track Severe Weather on mobile